sensor_id;sensor_type;location;lat;lon;timestamp;temperature;humidity
8008;DHT22;4049;49.468;11.200;2023-04-30T00:01:32;11.00;99.90
8008;DHT22;4049;49.468;11.200;2023-04-30T00:04:00;11.00;99.90
8008;DHT22;4049;49.468;11.200;2023-04-30T00:06:27;10.90;99.90
8008;DHT22;4049;49.468;11.200;2023-04-30T00:08:53;10.90;99.90
8008;DHT22;4049;49.468;11.200;2023-04-30T00:11:20;10.90;99.90
8008;DHT22;4049;49.468;11.200;2023-04-30T00:13:47;10.90;99.90
8008;DHT22;4049;49.468;11.200;2023-04-30T00:16:14;10.90;99.90
8008;DHT22;4049;49.468;11.200;2023-04-30T00:18:40;10.90;99.90
8008;DHT22;4049;49.468;11.200;2023-04-30T00:21:09;10.90;99.90
8008;DHT22;4049;49.468;11.200;2023-04-30T00:23:35;10.90;99.90
8008;DHT22;4049;49.468;11.200;2023-04-30T00:26:02;10.90;99.90
8008;DHT22;4049;49.468;11.200;2023-04-30T00:28:29;10.90;99.90
8008;DHT22;4049;49.468;11.200;2023-04-30T00:30:56;10.90;99.90
8008;DHT22;4049;49.468;11.200;2023-04-30T00:33:23;10.90;99.90
8008;DHT22;4049;49.468;11.200;2023-04-30T00:35:49;10.80;99.90
8008;DHT22;4049;49.468;11.200;2023-04-30T00:38:17;10.80;99.90
8008;DHT22;4049;49.468;11.200;2023-04-30T00:40:45;10.80;99.90
8008;DHT22;4049;49.468;11.200;2023-04-30T00:43:12;10.80;99.90
8008;DHT22;4049;49.468;11.200;2023-04-30T00:45:39;10.70;99.90
8008;DHT22;4049;49.468;11.200;2023-04-30T00:48:06;10.70;99.90
8008;DHT22;4049;49.468;11.200;2023-04-30T00:50:35;10.70;99.90
8008;DHT22;4049;49.468;11.200;2023-04-30T00:53:02;10.80;99.90
8008;DHT22;4049;49.468;11.200;2023-04-30T00:55:30;10.70;99.90
8008;DHT22;4049;49.468;11.200;2023-04-30T00:57:57;10.70;99.90
8008;DHT22;4049;49.468;11.200;2023-04-30T01:00:26;10.60;99.90
8008;DHT22;4049;49.468;11.200;2023-04-30T01:02:53;10.60;99.90
8008;DHT22;4049;49.468;11.200;2023-04-30T01:05:21;10.60;99.90
8008;DHT22;4049;49.468;11.200;2023-04-30T01:07:48;10.60;99.90
8008;DHT22;4049;49.468;11.200;2023-04-30T01:10:15;10.50;99.90
8008;DHT22;4049;49.468;11.200;2023-04-30T01:12:52;10.50;99.90
8008;DHT22;4049;49.468;11.200;2023-04-30T01:15:25;10.50;99.90
8008;DHT22;4049;49.468;11.200;2023-04-30T01:17:55;10.50;99.90
8008;DHT22;4049;49.468;11.200;2023-04-30T01:20:23;10.50;99.90
8008;DHT22;4049;49.468;11.200;2023-04-30T01:22:54;10.40;99.90
8008;DHT22;4049;49.468;11.200;2023-04-30T01:25:50;10.40;99.90
8008;DHT22;4049;49.468;11.200;2023-04-30T01:28:20;10.40;99.90
8008;DHT22;4049;49.468;11.200;2023-04-30T01:30:49;10.40;99.90
8008;DHT22;4049;49.468;11.200;2023-04-30T01:33:16;10.40;99.90
8008;DHT22;4049;49.468;11.200;2023-04-30T01:36:10;10.40;99.90
8008;DHT22;4049;49.468;11.200;2023-04-30T01:38:59;10.40;99.90
8008;DHT22;4049;49.468;11.200;2023-04-30T01:41:32;10.40;99.90
8008;DHT22;4049;49.468;11.200;2023-04-30T01:44:15;10.30;99.90
8008;DHT22;4049;49.468;11.200;2023-04-30T01:46:48;10.30;99.90
8008;DHT22;4049;49.468;11.200;2023-04-30T01:49:26;10.30;99.90
8008;DHT22;4049;49.468;11.200;2023-04-30T01:51:59;10.30;99.90
8008;DHT22;4049;49.468;11.200;2023-04-30T01:54:32;10.30;99.90
8008;DHT22;4049;49.468;11.200;2023-04-30T01:57:04;10.20;99.90
8008;DHT22;4049;49.468;11.200;2023-04-30T01:59:38;10.20;99.90
8008;DHT22;4049;49.468;11.200;2023-04-30T02:02:05;10.20;99.90
8008;DHT22;4049;49.468;11.200;2023-04-30T02:04:32;10.20;99.90
8008;DHT22;4049;49.468;11.200;2023-04-30T02:06:59;10.10;99.90
8008;DHT22;4049;49.468;11.200;2023-04-30T02:09:26;10.10;99.90
8008;DHT22;4049;49.468;11.200;2023-04-30T02:11:52;10.10;99.90
8008;DHT22;4049;49.468;11.200;2023-04-30T02:14:19;10.10;99.90
8008;DHT22;4049;49.468;11.200;2023-04-30T02:16:47;10.00;99.90
8008;DHT22;4049;49.468;11.200;2023-04-30T02:19:14;10.00;99.90
8008;DHT22;4049;49.468;11.200;2023-04-30T02:21:41;10.00;99.90
8008;DHT22;4049;49.468;11.200;2023-04-30T02:24:08;10.00;99.90
8008;DHT22;4049;49.468;11.200;2023-04-30T02:26:35;10.00;99.90
8008;DHT22;4049;49.468;11.200;2023-04-30T02:29:02;10.00;99.90
8008;DHT22;4049;49.468;11.200;2023-04-30T02:31:28;10.10;99.90
8008;DHT22;4049;49.468;11.200;2023-04-30T02:33:57;10.00;99.90
8008;DHT22;4049;49.468;11.200;2023-04-30T02:36:23;10.00;99.90
8008;DHT22;4049;49.468;11.200;2023-04-30T02:38:50;10.00;99.90
8008;DHT22;4049;49.468;11.200;2023-04-30T02:41:17;10.00;99.90
8008;DHT22;4049;49.468;11.200;2023-04-30T02:43:44;9.90;99.90
8008;DHT22;4049;49.468;11.200;2023-04-30T02:46:10;9.90;99.90
8008;DHT22;4049;49.468;11.200;2023-04-30T02:48:37;9.90;99.90
8008;DHT22;4049;49.468;11.200;2023-04-30T02:51:05;9.90;99.90
8008;DHT22;4049;49.468;11.200;2023-04-30T02:53:32;9.90;99.90
8008;DHT22;4049;49.468;11.200;2023-04-30T02:55:59;9.90;99.90
8008;DHT22;4049;49.468;11.200;2023-04-30T02:58:26;9.90;99.90
8008;DHT22;4049;49.468;11.200;2023-04-30T03:00:53;9.80;99.90
8008;DHT22;4049;49.468;11.200;2023-04-30T03:03:20;9.70;99.90
8008;DHT22;4049;49.468;11.200;2023-04-30T03:05:47;9.70;99.90
8008;DHT22;4049;49.468;11.200;2023-04-30T03:08:15;9.60;99.90
8008;DHT22;4049;49.468;11.200;2023-04-30T03:10:42;9.60;99.90
8008;DHT22;4049;49.468;11.200;2023-04-30T03:13:08;9.60;99.90
8008;DHT22;4049;49.468;11.200;2023-04-30T03:15:35;9.60;99.90
8008;DHT22;4049;49.468;11.200;2023-04-30T03:18:02;9.60;99.90
8008;DHT22;4049;49.468;11.200;2023-04-30T03:20:29;9.60;99.90
8008;DHT22;4049;49.468;11.200;2023-04-30T03:22:56;9.60;99.90
8008;DHT22;4049;49.468;11.200;2023-04-30T03:25:24;9.60;99.90
8008;DHT22;4049;49.468;11.200;2023-04-30T03:27:51;9.60;99.90
8008;DHT22;4049;49.468;11.200;2023-04-30T03:30:18;9.60;99.90
8008;DHT22;4049;49.468;11.200;2023-04-30T03:32:44;9.60;99.90
8008;DHT22;4049;49.468;11.200;2023-04-30T03:35:11;9.60;99.90
8008;DHT22;4049;49.468;11.200;2023-04-30T03:37:38;9.60;99.90
8008;DHT22;4049;49.468;11.200;2023-04-30T03:40:06;9.60;99.90
8008;DHT22;4049;49.468;11.200;2023-04-30T03:42:34;9.60;99.90
8008;DHT22;4049;49.468;11.200;2023-04-30T03:45:01;9.60;99.90
8008;DHT22;4049;49.468;11.200;2023-04-30T03:47:28;9.60;99.90
8008;DHT22;4049;49.468;11.200;2023-04-30T03:49:55;9.60;99.90
8008;DHT22;4049;49.468;11.200;2023-04-30T03:52:22;9.60;99.90
8008;DHT22;4049;49.468;11.200;2023-04-30T03:54:49;9.50;99.90
8008;DHT22;4049;49.468;11.200;2023-04-30T03:57:15;9.50;99.90
8008;DHT22;4049;49.468;11.200;2023-04-30T03:59:44;9.50;99.90
8008;DHT22;4049;49.468;11.200;2023-04-30T04:02:11;9.50;99.90
8008;DHT22;4049;49.468;11.200;2023-04-30T04:04:38;9.50;99.90
8008;DHT22;4049;49.468;11.200;2023-04-30T04:07:05;9.50;99.90
8008;DHT22;4049;49.468;11.200;2023-04-30T04:09:34;9.50;99.90
8008;DHT22;4049;49.468;11.200;2023-04-30T04:12:01;9.50;99.90
8008;DHT22;4049;49.468;11.200;2023-04-30T04:14:27;9.50;99.90
8008;DHT22;4049;49.468;11.200;2023-04-30T04:16:56;9.50;99.90
8008;DHT22;4049;49.468;11.200;2023-04-30T04:19:24;9.50;99.90
8008;DHT22;4049;49.468;11.200;2023-04-30T04:21:51;9.40;99.90
8008;DHT22;4049;49.468;11.200;2023-04-30T04:24:18;9.40;99.90
8008;DHT22;4049;49.468;11.200;2023-04-30T04:26:44;9.40;99.90
8008;DHT22;4049;49.468;11.200;2023-04-30T04:29:12;9.40;99.90
8008;DHT22;4049;49.468;11.200;2023-04-30T04:31:38;9.40;99.90
8008;DHT22;4049;49.468;11.200;2023-04-30T04:34:08;9.40;99.90
8008;DHT22;4049;49.468;11.200;2023-04-30T04:36:35;9.40;99.90
8008;DHT22;4049;49.468;11.200;2023-04-30T04:39:02;9.40;99.90
8008;DHT22;4049;49.468;11.200;2023-04-30T04:41:29;9.40;99.90
8008;DHT22;4049;49.468;11.200;2023-04-30T04:43:57;9.50;99.90
8008;DHT22;4049;49.468;11.200;2023-04-30T04:46:24;9.50;99.90
8008;DHT22;4049;49.468;11.200;2023-04-30T04:48:52;9.50;99.90
8008;DHT22;4049;49.468;11.200;2023-04-30T04:51:21;9.60;99.90
8008;DHT22;4049;49.468;11.200;2023-04-30T04:53:47;9.60;99.90
8008;DHT22;4049;49.468;11.200;2023-04-30T04:56:14;9.60;99.90
8008;DHT22;4049;49.468;11.200;2023-04-30T04:58:42;9.60;99.90
8008;DHT22;4049;49.468;11.200;2023-04-30T05:01:09;9.60;99.90
8008;DHT22;4049;49.468;11.200;2023-04-30T05:03:36;9.70;99.90
8008;DHT22;4049;49.468;11.200;2023-04-30T05:06:04;9.70;99.90
8008;DHT22;4049;49.468;11.200;2023-04-30T05:08:32;9.70;99.90
8008;DHT22;4049;49.468;11.200;2023-04-30T05:10:58;9.70;99.90
8008;DHT22;4049;49.468;11.200;2023-04-30T05:13:26;9.80;99.90
8008;DHT22;4049;49.468;11.200;2023-04-30T05:15:53;9.80;99.90
8008;DHT22;4049;49.468;11.200;2023-04-30T05:18:20;9.80;99.90
8008;DHT22;4049;49.468;11.200;2023-04-30T05:20:46;9.80;99.90
8008;DHT22;4049;49.468;11.200;2023-04-30T05:23:13;9.80;99.90
8008;DHT22;4049;49.468;11.200;2023-04-30T05:25:41;9.90;99.90
8008;DHT22;4049;49.468;11.200;2023-04-30T05:28:08;10.00;99.90
8008;DHT22;4049;49.468;11.200;2023-04-30T05:30:35;10.00;99.90
8008;DHT22;4049;49.468;11.200;2023-04-30T05:33:02;10.00;99.90
8008;DHT22;4049;49.468;11.200;2023-04-30T05:35:29;10.00;99.90
8008;DHT22;4049;49.468;11.200;2023-04-30T05:37:56;10.10;99.90
8008;DHT22;4049;49.468;11.200;2023-04-30T05:40:22;10.10;99.90
8008;DHT22;4049;49.468;11.200;2023-04-30T05:42:51;10.20;99.90
8008;DHT22;4049;49.468;11.200;2023-04-30T05:45:18;10.20;99.90
8008;DHT22;4049;49.468;11.200;2023-04-30T05:47:44;10.30;99.90
8008;DHT22;4049;49.468;11.200;2023-04-30T05:50:11;10.40;99.90
8008;DHT22;4049;49.468;11.200;2023-04-30T05:52:38;10.40;99.90
8008;DHT22;4049;49.468;11.200;2023-04-30T05:55:06;10.40;99.90
8008;DHT22;4049;49.468;11.200;2023-04-30T05:57:34;10.50;99.90
8008;DHT22;4049;49.468;11.200;2023-04-30T06:00:02;10.50;99.90
8008;DHT22;4049;49.468;11.200;2023-04-30T06:02:31;10.60;99.90
8008;DHT22;4049;49.468;11.200;2023-04-30T06:04:58;10.60;99.90
8008;DHT22;4049;49.468;11.200;2023-04-30T06:07:26;10.70;99.90
8008;DHT22;4049;49.468;11.200;2023-04-30T06:09:53;10.70;99.90
8008;DHT22;4049;49.468;11.200;2023-04-30T06:12:20;10.80;99.90
8008;DHT22;4049;49.468;11.200;2023-04-30T06:14:46;10.80;99.90
8008;DHT22;4049;49.468;11.200;2023-04-30T06:17:15;10.80;99.90
8008;DHT22;4049;49.468;11.200;2023-04-30T06:19:41;10.90;99.90
8008;DHT22;4049;49.468;11.200;2023-04-30T06:22:08;10.90;99.90
8008;DHT22;4049;49.468;11.200;2023-04-30T06:24:35;11.00;99.90
8008;DHT22;4049;49.468;11.200;2023-04-30T06:27:02;11.00;99.90
8008;DHT22;4049;49.468;11.200;2023-04-30T06:29:29;11.10;99.90
8008;DHT22;4049;49.468;11.200;2023-04-30T06:31:56;11.20;99.90
8008;DHT22;4049;49.468;11.200;2023-04-30T06:34:24;11.20;99.90
8008;DHT22;4049;49.468;11.200;2023-04-30T06:36:51;11.20;99.90
8008;DHT22;4049;49.468;11.200;2023-04-30T06:39:18;11.20;99.90
8008;DHT22;4049;49.468;11.200;2023-04-30T06:41:44;11.20;99.90
8008;DHT22;4049;49.468;11.200;2023-04-30T06:44:12;11.20;99.90
8008;DHT22;4049;49.468;11.200;2023-04-30T06:46:39;11.30;99.90
8008;DHT22;4049;49.468;11.200;2023-04-30T06:49:06;11.30;99.90
8008;DHT22;4049;49.468;11.200;2023-04-30T06:51:34;11.40;99.90
8008;DHT22;4049;49.468;11.200;2023-04-30T06:54:01;11.40;99.90
8008;DHT22;4049;49.468;11.200;2023-04-30T06:56:28;11.50;99.90
8008;DHT22;4049;49.468;11.200;2023-04-30T06:58:55;11.60;99.90
8008;DHT22;4049;49.468;11.200;2023-04-30T07:01:22;11.60;99.90
8008;DHT22;4049;49.468;11.200;2023-04-30T07:03:49;11.70;99.90
8008;DHT22;4049;49.468;11.200;2023-04-30T07:06:17;11.80;99.90
8008;DHT22;4049;49.468;11.200;2023-04-30T07:08:45;11.80;99.90
8008;DHT22;4049;49.468;11.200;2023-04-30T07:11:13;11.90;99.90
8008;DHT22;4049;49.468;11.200;2023-04-30T07:13:39;12.00;99.90
8008;DHT22;4049;49.468;11.200;2023-04-30T07:16:06;12.10;99.90
8008;DHT22;4049;49.468;11.200;2023-04-30T07:18:35;12.10;99.90
8008;DHT22;4049;49.468;11.200;2023-04-30T07:21:02;12.20;99.90
8008;DHT22;4049;49.468;11.200;2023-04-30T07:23:29;12.30;99.90
8008;DHT22;4049;49.468;11.200;2023-04-30T07:25:57;12.30;99.90
8008;DHT22;4049;49.468;11.200;2023-04-30T07:28:24;12.40;99.90
8008;DHT22;4049;49.468;11.200;2023-04-30T07:30:51;12.40;99.90
8008;DHT22;4049;49.468;11.200;2023-04-30T07:33:18;12.50;99.90
8008;DHT22;4049;49.468;11.200;2023-04-30T07:35:45;12.60;99.90
8008;DHT22;4049;49.468;11.200;2023-04-30T07:38:12;12.60;99.90
8008;DHT22;4049;49.468;11.200;2023-04-30T07:40:38;12.70;99.90
8008;DHT22;4049;49.468;11.200;2023-04-30T07:43:07;12.80;99.90
8008;DHT22;4049;49.468;11.200;2023-04-30T07:45:34;12.80;99.90
8008;DHT22;4049;49.468;11.200;2023-04-30T07:48:01;12.90;99.90
8008;DHT22;4049;49.468;11.200;2023-04-30T07:50:28;13.00;99.90
8008;DHT22;4049;49.468;11.200;2023-04-30T07:52:58;13.10;99.90
8008;DHT22;4049;49.468;11.200;2023-04-30T07:55:25;13.20;99.90
8008;DHT22;4049;49.468;11.200;2023-04-30T07:57:52;13.30;99.90
8008;DHT22;4049;49.468;11.200;2023-04-30T08:00:20;13.30;99.90
8008;DHT22;4049;49.468;11.200;2023-04-30T08:02:47;13.40;99.90
8008;DHT22;4049;49.468;11.200;2023-04-30T08:05:14;13.40;99.90
8008;DHT22;4049;49.468;11.200;2023-04-30T08:07:41;13.50;99.90
8008;DHT22;4049;49.468;11.200;2023-04-30T08:10:09;13.60;99.90
8008;DHT22;4049;49.468;11.200;2023-04-30T08:12:36;13.60;99.90
8008;DHT22;4049;49.468;11.200;2023-04-30T08:15:05;13.70;99.90
8008;DHT22;4049;49.468;11.200;2023-04-30T08:17:35;13.80;99.90
8008;DHT22;4049;49.468;11.200;2023-04-30T08:20:03;13.90;99.90
8008;DHT22;4049;49.468;11.200;2023-04-30T08:22:31;13.90;99.90
8008;DHT22;4049;49.468;11.200;2023-04-30T08:24:57;14.00;99.90
8008;DHT22;4049;49.468;11.200;2023-04-30T08:27:26;14.10;99.90
8008;DHT22;4049;49.468;11.200;2023-04-30T08:29:53;14.20;99.90
8008;DHT22;4049;49.468;11.200;2023-04-30T08:32:20;14.20;99.90
8008;DHT22;4049;49.468;11.200;2023-04-30T08:34:48;14.30;99.90
8008;DHT22;4049;49.468;11.200;2023-04-30T08:37:15;14.40;99.90
8008;DHT22;4049;49.468;11.200;2023-04-30T08:39:41;14.50;99.90
8008;DHT22;4049;49.468;11.200;2023-04-30T08:42:08;14.60;99.90
8008;DHT22;4049;49.468;11.200;2023-04-30T08:44:38;14.80;99.90
8008;DHT22;4049;49.468;11.200;2023-04-30T08:47:09;14.90;99.90
8008;DHT22;4049;49.468;11.200;2023-04-30T08:49:39;15.00;99.90
8008;DHT22;4049;49.468;11.200;2023-04-30T08:52:07;15.20;99.90
8008;DHT22;4049;49.468;11.200;2023-04-30T08:54:35;15.30;99.90
8008;DHT22;4049;49.468;11.200;2023-04-30T08:57:02;15.40;99.90
8008;DHT22;4049;49.468;11.200;2023-04-30T08:59:29;15.50;99.90
8008;DHT22;4049;49.468;11.200;2023-04-30T09:01:56;15.60;99.90
8008;DHT22;4049;49.468;11.200;2023-04-30T09:04:23;15.70;99.90
8008;DHT22;4049;49.468;11.200;2023-04-30T09:06:51;15.70;99.90
8008;DHT22;4049;49.468;11.200;2023-04-30T09:09:27;15.60;99.90
8008;DHT22;4049;49.468;11.200;2023-04-30T09:12:10;15.50;99.90
8008;DHT22;4049;49.468;11.200;2023-04-30T09:14:38;15.30;99.90
8008;DHT22;4049;49.468;11.200;2023-04-30T09:17:06;15.20;99.90
8008;DHT22;4049;49.468;11.200;2023-04-30T09:19:33;15.10;99.90
8008;DHT22;4049;49.468;11.200;2023-04-30T09:22:18;15.10;99.90
8008;DHT22;4049;49.468;11.200;2023-04-30T09:24:47;15.10;99.90
8008;DHT22;4049;49.468;11.200;2023-04-30T09:27:16;15.10;99.90
8008;DHT22;4049;49.468;11.200;2023-04-30T09:29:43;15.10;99.90
8008;DHT22;4049;49.468;11.200;2023-04-30T09:32:11;15.10;99.90
8008;DHT22;4049;49.468;11.200;2023-04-30T09:34:40;15.20;99.90
8008;DHT22;4049;49.468;11.200;2023-04-30T09:37:08;15.20;99.90
8008;DHT22;4049;49.468;11.200;2023-04-30T09:39:47;15.20;99.90
8008;DHT22;4049;49.468;11.200;2023-04-30T09:42:18;15.20;99.90
8008;DHT22;4049;49.468;11.200;2023-04-30T09:44:45;15.30;99.90
8008;DHT22;4049;49.468;11.200;2023-04-30T09:47:14;15.40;99.90
8008;DHT22;4049;49.468;11.200;2023-04-30T09:49:42;15.50;99.90
8008;DHT22;4049;49.468;11.200;2023-04-30T09:52:10;15.60;99.90
8008;DHT22;4049;49.468;11.200;2023-04-30T09:54:37;15.80;99.90
8008;DHT22;4049;49.468;11.200;2023-04-30T09:57:08;15.90;99.90
8008;DHT22;4049;49.468;11.200;2023-04-30T09:59:35;16.00;99.90
8008;DHT22;4049;49.468;11.200;2023-04-30T10:02:05;16.20;99.90
8008;DHT22;4049;49.468;11.200;2023-04-30T10:04:33;16.20;99.90
8008;DHT22;4049;49.468;11.200;2023-04-30T10:07:03;16.20;99.90
8008;DHT22;4049;49.468;11.200;2023-04-30T10:09:38;16.30;99.90
8008;DHT22;4049;49.468;11.200;2023-04-30T10:12:13;16.50;99.90
8008;DHT22;4049;49.468;11.200;2023-04-30T10:14:47;16.60;99.90
8008;DHT22;4049;49.468;11.200;2023-04-30T10:17:15;16.70;99.90
8008;DHT22;4049;49.468;11.200;2023-04-30T10:19:45;16.70;99.90
8008;DHT22;4049;49.468;11.200;2023-04-30T10:22:14;16.70;99.90
8008;DHT22;4049;49.468;11.200;2023-04-30T10:24:41;16.60;99.90
8008;DHT22;4049;49.468;11.200;2023-04-30T10:27:10;16.60;99.90
8008;DHT22;4049;49.468;11.200;2023-04-30T10:29:37;16.70;99.90
8008;DHT22;4049;49.468;11.200;2023-04-30T10:32:05;16.80;99.90
8008;DHT22;4049;49.468;11.200;2023-04-30T10:34:40;17.00;99.90
8008;DHT22;4049;49.468;11.200;2023-04-30T10:37:15;17.10;99.90
8008;DHT22;4049;49.468;11.200;2023-04-30T10:39:44;17.30;98.10
8008;DHT22;4049;49.468;11.200;2023-04-30T10:42:12;17.40;95.20
8008;DHT22;4049;49.468;11.200;2023-04-30T10:44:39;17.50;93.90
8008;DHT22;4049;49.468;11.200;2023-04-30T10:47:06;17.70;90.20
8008;DHT22;4049;49.468;11.200;2023-04-30T10:49:34;17.90;90.90
8008;DHT22;4049;49.468;11.200;2023-04-30T10:52:01;18.00;92.00
8008;DHT22;4049;49.468;11.200;2023-04-30T10:54:31;18.20;81.30
8008;DHT22;4049;49.468;11.200;2023-04-30T10:57:09;18.30;85.90
8008;DHT22;4049;49.468;11.200;2023-04-30T10:59:41;18.50;86.70
8008;DHT22;4049;49.468;11.200;2023-04-30T11:02:10;18.70;89.10
8008;DHT22;4049;49.468;11.200;2023-04-30T11:05:07;18.80;82.70
8008;DHT22;4049;49.468;11.200;2023-04-30T11:07:34;18.80;77.40
8008;DHT22;4049;49.468;11.200;2023-04-30T11:10:01;18.80;78.50
8008;DHT22;4049;49.468;11.200;2023-04-30T11:12:29;18.80;76.70
8008;DHT22;4049;49.468;11.200;2023-04-30T11:15:00;18.80;78.30
8008;DHT22;4049;49.468;11.200;2023-04-30T11:17:31;18.90;77.90
8008;DHT22;4049;49.468;11.200;2023-04-30T11:19:59;19.00;77.10
8008;DHT22;4049;49.468;11.200;2023-04-30T11:22:27;19.00;72.70
8008;DHT22;4049;49.468;11.200;2023-04-30T11:25:03;18.80;67.70
8008;DHT22;4049;49.468;11.200;2023-04-30T11:27:31;18.80;68.60
8008;DHT22;4049;49.468;11.200;2023-04-30T11:30:00;18.90;69.10
8008;DHT22;4049;49.468;11.200;2023-04-30T11:32:32;19.00;68.40
8008;DHT22;4049;49.468;11.200;2023-04-30T11:35:00;19.10;67.70
8008;DHT22;4049;49.468;11.200;2023-04-30T11:37:30;19.30;71.00
8008;DHT22;4049;49.468;11.200;2023-04-30T11:40:00;19.50;67.20
8008;DHT22;4049;49.468;11.200;2023-04-30T11:42:28;19.70;64.20
8008;DHT22;4049;49.468;11.200;2023-04-30T11:45:03;19.70;63.20
8008;DHT22;4049;49.468;11.200;2023-04-30T11:47:41;19.80;62.30
8008;DHT22;4049;49.468;11.200;2023-04-30T11:50:09;19.80;60.60
8008;DHT22;4049;49.468;11.200;2023-04-30T11:52:36;19.90;58.50
8008;DHT22;4049;49.468;11.200;2023-04-30T11:55:11;19.80;57.30
8008;DHT22;4049;49.468;11.200;2023-04-30T11:57:39;19.70;59.10
8008;DHT22;4049;49.468;11.200;2023-04-30T12:00:10;19.80;59.90
8008;DHT22;4049;49.468;11.200;2023-04-30T12:02:37;19.90;59.30
8008;DHT22;4049;49.468;11.200;2023-04-30T12:05:10;20.00;58.00
8008;DHT22;4049;49.468;11.200;2023-04-30T12:07:38;20.00;57.60
8008;DHT22;4049;49.468;11.200;2023-04-30T12:10:06;19.80;57.30
8008;DHT22;4049;49.468;11.200;2023-04-30T12:12:35;19.80;56.40
8008;DHT22;4049;49.468;11.200;2023-04-30T12:15:12;19.70;55.30
8008;DHT22;4049;49.468;11.200;2023-04-30T12:17:39;19.70;56.80
8008;DHT22;4049;49.468;11.200;2023-04-30T12:20:07;19.70;56.90
8008;DHT22;4049;49.468;11.200;2023-04-30T12:22:34;19.60;54.80
8008;DHT22;4049;49.468;11.200;2023-04-30T12:25:05;19.60;55.90
8008;DHT22;4049;49.468;11.200;2023-04-30T12:27:34;19.50;53.90
8008;DHT22;4049;49.468;11.200;2023-04-30T12:30:04;19.20;54.60
8008;DHT22;4049;49.468;11.200;2023-04-30T12:32:38;19.20;54.90
8008;DHT22;4049;49.468;11.200;2023-04-30T12:35:06;19.10;55.40
8008;DHT22;4049;49.468;11.200;2023-04-30T12:37:33;19.30;55.50
8008;DHT22;4049;49.468;11.200;2023-04-30T12:40:00;19.60;54.40
8008;DHT22;4049;49.468;11.200;2023-04-30T12:42:31;19.90;57.30
8008;DHT22;4049;49.468;11.200;2023-04-30T12:44:58;19.90;52.80
8008;DHT22;4049;49.468;11.200;2023-04-30T12:47:25;19.70;52.90
8008;DHT22;4049;49.468;11.200;2023-04-30T12:49:54;19.50;54.50
8008;DHT22;4049;49.468;11.200;2023-04-30T12:52:23;19.40;53.10
8008;DHT22;4049;49.468;11.200;2023-04-30T12:54:50;19.30;53.20
8008;DHT22;4049;49.468;11.200;2023-04-30T12:57:19;19.60;54.30
8008;DHT22;4049;49.468;11.200;2023-04-30T12:59:58;20.10;55.60
8008;DHT22;4049;49.468;11.200;2023-04-30T13:02:27;20.30;52.60
8008;DHT22;4049;49.468;11.200;2023-04-30T13:04:57;20.20;52.80
8008;DHT22;4049;49.468;11.200;2023-04-30T13:07:24;20.30;51.80
8008;DHT22;4049;49.468;11.200;2023-04-30T13:09:51;20.10;52.30
8008;DHT22;4049;49.468;11.200;2023-04-30T13:12:18;20.50;51.60
8008;DHT22;4049;49.468;11.200;2023-04-30T13:14:45;20.80;52.00
8008;DHT22;4049;49.468;11.200;2023-04-30T13:17:12;20.90;50.80
8008;DHT22;4049;49.468;11.200;2023-04-30T13:19:39;20.60;49.00
8008;DHT22;4049;49.468;11.200;2023-04-30T13:22:07;20.70;50.60
8008;DHT22;4049;49.468;11.200;2023-04-30T13:24:34;20.40;50.10
8008;DHT22;4049;49.468;11.200;2023-04-30T13:27:01;20.30;50.20
8008;DHT22;4049;49.468;11.200;2023-04-30T13:29:28;20.80;51.60
8008;DHT22;4049;49.468;11.200;2023-04-30T13:31:56;21.30;50.70
8008;DHT22;4049;49.468;11.200;2023-04-30T13:34:23;21.80;48.60
8008;DHT22;4049;49.468;11.200;2023-04-30T13:36:49;22.20;49.00
8008;DHT22;4049;49.468;11.200;2023-04-30T13:39:19;22.30;46.90
8008;DHT22;4049;49.468;11.200;2023-04-30T13:41:46;22.00;47.00
8008;DHT22;4049;49.468;11.200;2023-04-30T13:44:13;21.60;47.90
8008;DHT22;4049;49.468;11.200;2023-04-30T13:46:41;21.70;48.00
8008;DHT22;4049;49.468;11.200;2023-04-30T13:49:08;21.90;48.50
8008;DHT22;4049;49.468;11.200;2023-04-30T13:51:35;22.10;48.70
8008;DHT22;4049;49.468;11.200;2023-04-30T13:54:02;22.10;43.80
8008;DHT22;4049;49.468;11.200;2023-04-30T13:56:30;22.00;43.70
8008;DHT22;4049;49.468;11.200;2023-04-30T13:58:57;22.20;46.40
8008;DHT22;4049;49.468;11.200;2023-04-30T14:01:24;22.40;45.50
8008;DHT22;4049;49.468;11.200;2023-04-30T14:03:51;22.40;44.90
8008;DHT22;4049;49.468;11.200;2023-04-30T14:06:18;22.50;44.70
8008;DHT22;4049;49.468;11.200;2023-04-30T14:08:45;22.30;44.80
8008;DHT22;4049;49.468;11.200;2023-04-30T14:11:11;22.20;44.50
8008;DHT22;4049;49.468;11.200;2023-04-30T14:13:40;22.20;45.80
8008;DHT22;4049;49.468;11.200;2023-04-30T14:16:07;22.30;43.70
8008;DHT22;4049;49.468;11.200;2023-04-30T14:18:34;22.30;43.10
8008;DHT22;4049;49.468;11.200;2023-04-30T14:21:01;22.30;45.60
8008;DHT22;4049;49.468;11.200;2023-04-30T14:23:28;22.30;44.00
8008;DHT22;4049;49.468;11.200;2023-04-30T14:25:55;22.30;45.00
8008;DHT22;4049;49.468;11.200;2023-04-30T14:28:22;22.40;45.80
8008;DHT22;4049;49.468;11.200;2023-04-30T14:30:50;22.50;46.80
8008;DHT22;4049;49.468;11.200;2023-04-30T14:33:17;22.50;45.00
8008;DHT22;4049;49.468;11.200;2023-04-30T14:35:44;22.20;44.10
8008;DHT22;4049;49.468;11.200;2023-04-30T14:38:11;21.90;43.60
8008;DHT22;4049;49.468;11.200;2023-04-30T14:40:38;21.40;43.70
8008;DHT22;4049;49.468;11.200;2023-04-30T14:43:05;21.10;43.30
8008;DHT22;4049;49.468;11.200;2023-04-30T14:45:32;21.00;44.60
8008;DHT22;4049;49.468;11.200;2023-04-30T14:48:00;21.00;44.20
8008;DHT22;4049;49.468;11.200;2023-04-30T14:50:27;21.00;45.00
8008;DHT22;4049;49.468;11.200;2023-04-30T14:52:54;21.10;45.50
8008;DHT22;4049;49.468;11.200;2023-04-30T14:55:21;21.10;45.20
8008;DHT22;4049;49.468;11.200;2023-04-30T14:57:48;21.30;44.50
8008;DHT22;4049;49.468;11.200;2023-04-30T15:00:16;21.10;43.70
8008;DHT22;4049;49.468;11.200;2023-04-30T15:02:42;21.30;44.40
8008;DHT22;4049;49.468;11.200;2023-04-30T15:05:11;21.10;45.10
8008;DHT22;4049;49.468;11.200;2023-04-30T15:07:38;21.10;44.60
8008;DHT22;4049;49.468;11.200;2023-04-30T15:10:06;21.20;46.10
8008;DHT22;4049;49.468;11.200;2023-04-30T15:12:33;21.20;45.40
8008;DHT22;4049;49.468;11.200;2023-04-30T15:15:00;21.20;44.30
8008;DHT22;4049;49.468;11.200;2023-04-30T15:17:28;21.30;44.50
8008;DHT22;4049;49.468;11.200;2023-04-30T15:19:56;21.30;44.20
8008;DHT22;4049;49.468;11.200;2023-04-30T15:22:26;21.30;45.10
8008;DHT22;4049;49.468;11.200;2023-04-30T15:24:53;21.30;44.80
8008;DHT22;4049;49.468;11.200;2023-04-30T15:27:21;21.30;45.00
8008;DHT22;4049;49.468;11.200;2023-04-30T15:29:48;21.30;45.60
8008;DHT22;4049;49.468;11.200;2023-04-30T15:32:15;21.20;44.30
8008;DHT22;4049;49.468;11.200;2023-04-30T15:34:42;21.10;43.70
8008;DHT22;4049;49.468;11.200;2023-04-30T15:37:09;21.00;43.80
8008;DHT22;4049;49.468;11.200;2023-04-30T15:39:38;21.10;44.70
8008;DHT22;4049;49.468;11.200;2023-04-30T15:42:05;21.00;42.90
8008;DHT22;4049;49.468;11.200;2023-04-30T15:44:32;21.00;43.20
8008;DHT22;4049;49.468;11.200;2023-04-30T15:47:00;21.00;44.20
8008;DHT22;4049;49.468;11.200;2023-04-30T15:49:27;21.00;44.40
8008;DHT22;4049;49.468;11.200;2023-04-30T15:51:54;20.90;44.90
8008;DHT22;4049;49.468;11.200;2023-04-30T15:54:21;20.80;44.60
8008;DHT22;4049;49.468;11.200;2023-04-30T15:56:49;20.60;43.70